createdAt,value
2019-02-21T00:01:37.069Z,8.01
2019-02-21T00:04:20.197Z,8.02
2019-02-21T00:07:11.169Z,7.98
2019-02-21T00:10:13.892Z,7.94
2019-02-21T00:13:04.832Z,8.06
2019-02-21T00:15:48.690Z,7.94
2019-02-21T00:18:39.805Z,7.92
2019-02-21T00:21:23.508Z,7.97
2019-02-21T00:24:14.432Z,7.94
2019-02-21T00:26:58.335Z,7.95
2019-02-21T00:29:49.244Z,8.01
2019-02-21T00:32:33.046Z,7.97
2019-02-21T00:35:23.936Z,8.00
2019-02-21T00:38:07.895Z,7.92
2019-02-21T00:40:58.857Z,7.88
2019-02-21T00:43:42.579Z,7.82
2019-02-21T00:46:33.616Z,7.87
2019-02-21T00:49:17.313Z,8.02
2019-02-21T00:52:08.215Z,7.92
2019-02-21T00:54:52.163Z,7.85
2019-02-21T00:57:43.770Z,7.80
2019-02-21T01:00:27.142Z,7.76
2019-02-21T01:03:18.060Z,7.79
2019-02-21T01:06:01.874Z,7.75
2019-02-21T01:08:52.798Z,7.74
2019-02-21T01:11:36.697Z,7.68
2019-02-21T01:14:27.625Z,7.63
2019-02-21T01:17:11.498Z,7.74
2019-02-21T01:19:55.725Z,7.81
2019-02-21T01:22:46.659Z,7.78
2019-02-21T01:25:29.860Z,7.74
2019-02-21T01:28:20.787Z,7.69
2019-02-21T01:31:04.384Z,7.61
2019-02-21T01:33:55.320Z,7.66
2019-02-21T01:36:38.999Z,7.63
2019-02-21T01:39:29.926Z,7.59
2019-02-21T01:42:13.995Z,7.52
2019-02-21T01:45:05.127Z,7.60
2019-02-21T01:47:49.835Z,7.58
2019-02-21T01:50:40.744Z,7.50
2019-02-21T01:53:24.160Z,7.40
2019-02-21T01:56:15.171Z,7.46
2019-02-21T01:58:58.717Z,7.40
2019-02-21T02:01:49.664Z,7.37
2019-02-21T02:04:33.236Z,7.35
2019-02-21T02:07:24.181Z,7.36
2019-02-21T02:10:07.956Z,7.40
2019-02-21T02:12:58.863Z,7.29
2019-02-21T02:15:42.687Z,7.22
2019-02-21T02:18:26.596Z,7.26
2019-02-21T02:21:19.129Z,7.26
2019-02-21T02:24:02.822Z,7.22
2019-02-21T02:26:53.816Z,7.19
2019-02-21T02:29:37.779Z,7.23
2019-02-21T02:32:28.670Z,7.20
2019-02-21T02:35:12.548Z,7.19
2019-02-21T02:38:05.339Z,7.31
2019-02-21T02:40:49.002Z,7.26
2019-02-21T02:43:39.963Z,7.24
2019-02-21T02:46:23.321Z,7.39
2019-02-21T02:49:14.232Z,7.21
2019-02-21T02:51:58.260Z,7.15
2019-02-21T02:54:49.184Z,7.27
2019-02-21T02:57:33.094Z,7.14
2019-02-21T03:00:23.999Z,7.06
2019-02-21T03:03:07.850Z,7.28
2019-02-21T03:05:58.775Z,7.24
2019-02-21T03:08:42.716Z,7.24
2019-02-21T03:11:33.599Z,7.11
2019-02-21T03:14:16.830Z,7.24
2019-02-21T03:17:07.754Z,7.24
2019-02-21T03:19:51.254Z,7.32
2019-02-21T03:22:42.155Z,7.25
2019-02-21T03:25:25.884Z,7.14
2019-02-21T03:28:09.866Z,7.15
2019-02-21T03:31:00.805Z,7.23
2019-02-21T03:33:44.607Z,7.28
2019-02-21T03:36:35.591Z,7.38
2019-02-21T03:39:19.579Z,7.46
2019-02-21T03:42:10.511Z,7.35
2019-02-21T03:44:54.179Z,7.36
2019-02-21T03:47:45.135Z,7.30
2019-02-21T03:50:29.059Z,7.36
2019-02-21T03:53:20.078Z,7.28
2019-02-21T03:56:03.850Z,7.24
2019-02-21T03:58:54.764Z,7.38
2019-02-21T04:01:38.382Z,7.30
2019-02-21T04:04:29.296Z,7.38
2019-02-21T04:07:13.170Z,7.41
2019-02-21T04:10:04.097Z,7.31
2019-02-21T04:12:47.325Z,7.40
2019-02-21T04:15:38.228Z,7.50
2019-02-21T04:18:21.721Z,7.36
2019-02-21T04:21:12.650Z,7.25
2019-02-21T04:23:56.713Z,7.30
2019-02-21T04:26:47.632Z,7.42
2019-02-21T04:29:33.853Z,7.36
2019-02-21T04:32:24.846Z,7.34
2019-02-21T04:35:08.481Z,7.35
2019-02-21T04:37:51.986Z,7.45
2019-02-21T04:40:42.927Z,7.40
2019-02-21T04:43:26.236Z,7.32
2019-02-21T04:46:17.035Z,7.31
2019-02-21T04:49:00.378Z,7.32
2019-02-21T04:51:51.332Z,7.36
2019-02-21T04:54:35.266Z,7.31
2019-02-21T04:57:26.197Z,7.36
2019-02-21T05:00:10.606Z,7.42
2019-02-21T05:03:01.547Z,7.34
2019-02-21T05:05:52.495Z,7.51
2019-02-21T05:08:36.288Z,7.37
2019-02-21T05:11:27.214Z,7.32
2019-02-21T05:14:11.281Z,7.34
2019-02-21T05:17:02.217Z,7.34
2019-02-21T05:19:45.848Z,7.34
2019-02-21T05:22:36.786Z,7.32
2019-02-21T05:25:20.118Z,7.35
2019-02-21T05:28:29.953Z,7.34
2019-02-21T05:31:32.799Z,7.37
2019-02-21T05:34:33.516Z,7.33
2019-02-21T05:37:36.415Z,7.32
2019-02-21T05:40:46.186Z,7.26
2019-02-21T05:43:48.789Z,7.25
2019-02-21T05:46:58.578Z,7.31
2019-02-21T05:49:50.023Z,7.36
2019-02-21T05:52:59.799Z,7.33
2019-02-21T05:55:49.376Z,7.51
2019-02-21T05:58:59.170Z,7.30
2019-02-21T06:02:02.054Z,7.31
2019-02-21T06:05:11.804Z,7.28
2019-02-21T06:08:13.961Z,7.21
2019-02-21T06:11:23.742Z,7.21
2019-02-21T06:14:25.778Z,7.23
2019-02-21T06:17:35.571Z,7.20
2019-02-21T06:20:38.177Z,7.13
2019-02-21T06:23:49.218Z,7.09
2019-02-21T06:26:57.911Z,7.11
2019-02-21T06:30:03.583Z,7.23
2019-02-21T06:33:04.607Z,7.16
2019-02-21T06:35:59.655Z,7.11
2019-02-21T06:38:50.643Z,7.14
2019-02-21T06:41:33.994Z,7.11
2019-02-21T06:44:25.955Z,7.08
2019-02-21T06:47:09.809Z,7.10
2019-02-21T06:50:00.752Z,7.09
2019-02-21T06:52:43.931Z,7.13
2019-02-21T06:55:34.859Z,7.11
2019-02-21T06:58:18.669Z,7.19
2019-02-21T07:01:10.212Z,7.24
2019-02-21T07:03:55.784Z,7.28
2019-02-21T07:06:46.756Z,7.31
2019-02-21T07:09:30.701Z,7.38
2019-02-21T07:12:21.740Z,7.43
2019-02-21T07:15:05.375Z,7.54
2019-02-21T07:17:56.293Z,7.49
2019-02-21T07:20:39.933Z,7.60
2019-02-21T07:23:40.687Z,7.67
2019-02-21T07:26:36.528Z,7.86
2019-02-21T07:29:20.560Z,8.38
2019-02-21T07:32:11.499Z,9.29
2019-02-21T07:34:55.257Z,10.62
2019-02-21T07:37:46.237Z,11.40
2019-02-21T07:40:29.459Z,11.79
2019-02-21T07:43:20.780Z,12.34
2019-02-21T07:46:24.963Z,12.88
2019-02-21T07:49:16.108Z,12.40
2019-02-21T07:52:00.294Z,11.44
2019-02-21T07:54:32.154Z,11.78
2019-02-21T07:57:23.059Z,12.19
2019-02-21T08:00:14.119Z,12.10
2019-02-21T08:02:57.259Z,12.41
2019-02-21T08:05:48.243Z,12.02
2019-02-21T08:08:32.563Z,12.43
2019-02-21T08:11:42.434Z,12.39
2019-02-21T08:14:25.734Z,12.80
2019-02-21T08:17:16.813Z,12.98
2019-02-21T08:20:08.386Z,13.00
2019-02-21T08:22:46.399Z,13.25
2019-02-21T08:25:37.391Z,12.20
2019-02-21T08:28:20.542Z,11.46
2019-02-21T08:31:11.486Z,11.21
2019-02-21T08:34:04.637Z,10.99
2019-02-21T08:36:55.535Z,10.96
2019-02-21T08:39:38.739Z,11.18
2019-02-21T08:42:29.816Z,10.68
2019-02-21T08:45:13.282Z,10.87
2019-02-21T08:48:04.287Z,11.03
2019-02-21T08:50:48.081Z,10.76
2019-02-21T08:53:39.127Z,10.56
2019-02-21T08:56:23.273Z,10.32
2019-02-21T09:02:18.107Z,10.08
2019-02-21T09:05:09.578Z,10.06
2019-02-21T09:07:53.460Z,10.26
2019-02-21T09:10:44.449Z,10.49
2019-02-21T09:13:27.885Z,10.38
2019-02-21T09:16:18.851Z,10.31
2019-02-21T09:19:02.676Z,10.09
2019-02-21T09:21:46.672Z,10.09
2019-02-21T09:24:41.995Z,10.02
2019-02-21T09:27:42.391Z,9.94
2019-02-21T09:30:25.704Z,9.88
2019-02-21T09:33:17.792Z,9.85
2019-02-21T09:36:20.989Z,9.93
2019-02-21T09:39:11.929Z,9.81
2019-02-21T09:41:55.737Z,9.96
2019-02-21T09:44:46.725Z,10.13
2019-02-21T09:47:31.207Z,10.50
2019-02-21T09:50:22.154Z,11.06
2019-02-21T09:53:05.437Z,11.54
2019-02-21T09:56:16.892Z,11.74
2019-02-21T09:59:00.279Z,11.45
2019-02-21T10:01:52.751Z,11.12
2019-02-21T10:04:36.333Z,11.09
2019-02-21T10:07:27.286Z,11.04
2019-02-21T10:10:12.622Z,11.19
2019-02-21T10:13:03.571Z,11.36
2019-02-21T10:15:47.230Z,11.41
2019-02-21T10:18:38.229Z,11.41
2019-02-21T10:21:21.738Z,11.43
2019-02-21T10:24:04.869Z,11.46
2019-02-21T10:26:55.906Z,11.43
2019-02-21T10:29:39.753Z,11.27
2019-02-21T10:32:30.704Z,11.34
2019-02-21T10:35:14.784Z,11.55
2019-02-21T10:41:15.794Z,12.11
2019-02-21T10:44:06.763Z,12.56
2019-02-21T10:46:50.227Z,13.32
2019-02-21T10:49:41.152Z,14.21
2019-02-21T10:52:32.091Z,15.24
2019-02-21T10:55:17.827Z,16.31
2019-02-21T10:58:08.825Z,16.78
2019-02-21T11:00:52.088Z,16.99
2019-02-21T11:03:43.023Z,16.95
2019-02-21T11:06:26.197Z,16.71
2019-02-21T11:09:36.620Z,16.19
2019-02-21T11:12:20.011Z,15.89
2019-02-21T11:15:12.854Z,15.76
2019-02-21T11:17:57.882Z,16.26
2019-02-21T11:20:50.092Z,16.30
2019-02-21T11:23:33.928Z,15.67
2019-02-21T11:26:18.746Z,15.11
2019-02-21T11:29:09.718Z,15.13
2019-02-21T11:32:00.653Z,15.15
2019-02-21T11:34:44.707Z,15.31
2019-02-21T11:37:43.219Z,15.30
2019-02-21T11:40:39.735Z,15.85
2019-02-21T11:43:30.683Z,16.35
2019-02-21T11:46:14.065Z,16.29
2019-02-21T11:52:34.214Z,15.96
2019-02-21T11:55:25.225Z,15.94
2019-02-21T11:58:09.110Z,15.55
2019-02-21T12:01:02.478Z,15.42
2019-02-21T12:03:46.333Z,15.33
2019-02-21T12:06:38.193Z,15.44
2019-02-21T12:09:22.122Z,15.23
2019-02-21T12:12:24.328Z,14.98
2019-02-21T12:15:15.242Z,15.03
2019-02-21T12:17:58.495Z,15.02
2019-02-21T12:20:42.471Z,14.55
2019-02-21T12:23:33.430Z,14.51
2019-02-21T12:26:24.360Z,14.66
2019-02-21T12:29:08.278Z,14.54
2019-02-21T12:31:59.244Z,14.54
2019-02-21T12:34:42.874Z,14.58
2019-02-21T12:37:33.857Z,14.38
2019-02-21T12:40:17.820Z,14.26
2019-02-21T12:43:08.814Z,14.43
2019-02-21T12:45:55.064Z,14.59
2019-02-21T12:48:46.049Z,14.59
2019-02-21T12:51:29.669Z,14.48
2019-02-21T12:54:20.680Z,14.42
2019-02-21T12:57:04.616Z,14.18
2019-02-21T12:59:55.590Z,14.08
2019-02-21T13:02:39.659Z,14.01
2019-02-21T13:05:40.361Z,14.23
2019-02-21T13:08:35.342Z,14.11
2019-02-21T13:11:26.284Z,14.36
2019-02-21T13:14:09.909Z,14.42
2019-02-21T13:17:00.859Z,14.77
2019-02-21T13:19:44.843Z,14.89
2019-02-21T13:22:36.291Z,14.92
2019-02-21T13:25:20.037Z,14.85
2019-02-21T13:28:10.986Z,14.85
2019-02-21T13:30:54.854Z,14.76
2019-02-21T13:33:45.869Z,14.80
2019-02-21T13:36:36.856Z,14.84
2019-02-21T13:39:09.879Z,14.86
2019-02-21T13:41:53.855Z,14.98
2019-02-21T13:44:44.793Z,15.02
2019-02-21T13:47:28.701Z,15.04
2019-02-21T13:50:19.725Z,14.78
2019-02-21T13:53:04.107Z,14.77
2019-02-21T13:55:55.082Z,14.54
2019-02-21T13:58:38.593Z,14.64
2019-02-21T14:01:29.558Z,14.72
2019-02-21T14:04:13.401Z,14.56
2019-02-21T14:07:04.465Z,14.65
2019-02-21T14:10:07.203Z,14.66
2019-02-21T14:12:58.176Z,14.67
2019-02-21T14:15:41.933Z,14.58
2019-02-21T14:18:32.921Z,14.65
2019-02-21T14:21:16.833Z,14.94
2019-02-21T14:24:00.541Z,14.85
2019-02-21T14:26:51.507Z,14.87
2019-02-21T14:29:54.317Z,14.64
2019-02-21T14:32:45.277Z,14.11
2019-02-21T14:35:29.090Z,14.07
2019-02-21T14:38:28.088Z,13.95
2019-02-21T14:41:24.475Z,13.86
2019-02-21T14:44:15.474Z,13.82
2019-02-21T14:46:59.125Z,13.81
2019-02-21T14:49:50.115Z,13.39
2019-02-21T14:52:33.222Z,13.41
2019-02-21T14:55:24.175Z,13.34
2019-02-21T14:58:07.766Z,13.01
2019-02-21T15:00:58.704Z,13.02
2019-02-21T15:03:49.651Z,13.03
2019-02-21T15:06:33.185Z,12.96
2019-02-21T15:09:24.134Z,13.09
2019-02-21T15:12:15.969Z,12.94
2019-02-21T15:14:59.930Z,13.02
2019-02-21T15:17:50.843Z,12.99
2019-02-21T15:20:54.132Z,12.86
2019-02-21T15:23:45.154Z,12.75
2019-02-21T15:26:29.311Z,12.78
2019-02-21T15:29:20.248Z,12.89
2019-02-21T15:32:11.189Z,12.81
2019-02-21T15:34:56.834Z,13.07
2019-02-21T15:37:40.293Z,13.14
2019-02-21T15:43:58.051Z,13.02
2019-02-21T15:46:49.001Z,12.91
2019-02-21T15:49:32.309Z,12.78
2019-02-21T15:52:23.264Z,12.74
2019-02-21T15:55:12.281Z,12.71
2019-02-21T15:58:04.080Z,12.63
2019-02-21T16:01:04.540Z,12.59
2019-02-21T16:03:55.484Z,12.50
2019-02-21T16:06:50.751Z,12.49
2019-02-21T16:09:31.981Z,12.48
2019-02-21T16:12:16.474Z,12.40
2019-02-21T16:15:09.142Z,12.39
2019-02-21T16:17:52.494Z,12.28
2019-02-21T16:20:43.448Z,12.25
2019-02-21T16:23:46.145Z,12.17
2019-02-21T16:26:37.085Z,12.25
2019-02-21T16:29:20.905Z,12.20
2019-02-21T16:32:11.848Z,12.06
2019-02-21T16:34:55.932Z,12.06
2019-02-21T16:37:46.932Z,12.04
2019-02-21T16:40:30.952Z,12.11
2019-02-21T16:43:21.904Z,12.09
2019-02-21T16:46:25.125Z,12.00
2019-02-21T16:49:16.132Z,12.03
2019-02-21T16:52:07.071Z,11.97
2019-02-21T16:54:58.049Z,11.96
2019-02-21T16:57:42.001Z,12.03
2019-02-21T17:00:42.380Z,11.93
2019-02-21T17:03:37.564Z,11.99
2019-02-21T17:06:28.488Z,11.96
2019-02-21T17:09:12.001Z,11.94
2019-02-21T17:12:02.966Z,12.03
2019-02-21T17:14:46.326Z,12.01
2019-02-21T17:17:37.237Z,11.94
2019-02-21T17:20:20.423Z,11.89
2019-02-21T17:23:22.230Z,11.88
2019-02-21T17:26:15.731Z,11.94
2019-02-21T17:29:06.700Z,11.92
2019-02-21T17:31:50.510Z,11.89
2019-02-21T17:34:41.420Z,11.87
2019-02-21T17:37:25.484Z,11.86
2019-02-21T17:40:18.305Z,11.81
2019-02-21T17:43:01.556Z,11.79
2019-02-21T17:45:52.481Z,11.77
2019-02-21T17:48:36.437Z,11.79
2019-02-21T17:51:27.342Z,11.81
2019-02-21T17:54:11.228Z,11.80
2019-02-21T17:57:02.196Z,11.78
2019-02-21T17:59:45.785Z,11.80
2019-02-21T18:02:36.737Z,11.77
2019-02-21T18:05:20.022Z,11.79
2019-02-21T18:08:10.958Z,11.82
2019-02-21T18:10:54.351Z,11.75
2019-02-21T18:13:45.336Z,11.70
2019-02-21T18:16:29.386Z,11.74
2019-02-21T18:19:20.326Z,11.70
2019-02-21T18:22:04.192Z,11.70
2019-02-21T18:24:55.159Z,11.66
2019-02-21T18:27:38.962Z,11.67
2019-02-21T18:30:29.948Z,11.70
2019-02-21T18:33:13.558Z,11.71
2019-02-21T18:36:04.521Z,11.74
2019-02-21T18:38:48.460Z,11.80
2019-02-21T18:41:39.429Z,11.80
2019-02-21T18:44:22.514Z,11.77
2019-02-21T18:47:13.440Z,11.70
2019-02-21T18:49:57.203Z,11.64
2019-02-21T18:52:48.155Z,11.67
2019-02-21T18:55:31.489Z,11.63
2019-02-21T18:58:22.440Z,11.64
2019-02-21T19:01:05.552Z,11.61
2019-02-21T19:03:56.488Z,11.57
2019-02-21T19:06:40.262Z,11.54
2019-02-21T19:09:31.267Z,11.42
2019-02-21T19:12:14.876Z,11.38
2019-02-21T19:15:06.224Z,11.39
2019-02-21T19:18:09.028Z,11.31
2019-02-21T19:21:00.135Z,11.25
2019-02-21T19:23:44.214Z,11.16
2019-02-21T19:26:35.194Z,11.09
2019-02-21T19:29:18.876Z,11.12
2019-02-21T19:32:09.836Z,11.10
2019-02-21T19:34:53.393Z,11.09
2019-02-21T19:40:52.793Z,11.09
2019-02-21T19:43:43.706Z,11.07
2019-02-21T19:46:34.600Z,11.13
2019-02-21T19:49:37.637Z,11.08
2019-02-21T19:52:28.570Z,11.02
2019-02-21T19:55:13.206Z,11.03
2019-02-21T19:58:04.155Z,10.98
2019-02-21T20:00:48.015Z,11.00
2019-02-21T20:03:39.086Z,10.98
2019-02-21T20:06:22.363Z,10.97
2019-02-21T20:13:03.753Z,10.98
2019-02-21T20:15:54.707Z,10.92
2019-02-21T20:18:45.708Z,10.91
2019-02-21T20:21:29.433Z,10.93
2019-02-21T20:24:20.395Z,10.93
2019-02-21T20:27:04.047Z,10.91
2019-02-21T20:29:54.974Z,10.89
2019-02-21T20:32:57.748Z,10.87
2019-02-21T20:35:50.333Z,10.88
2019-02-21T20:38:33.889Z,10.89
2019-02-21T20:41:24.827Z,10.91
2019-02-21T20:44:08.705Z,10.93
2019-02-21T20:46:59.659Z,10.95
2019-02-21T20:49:42.762Z,10.85
2019-02-21T20:52:33.747Z,10.85
2019-02-21T20:55:17.407Z,10.87
2019-02-21T20:58:08.385Z,10.79
2019-02-21T21:00:52.248Z,10.73
2019-02-21T21:03:43.267Z,10.75
2019-02-21T21:06:26.956Z,10.68
2019-02-21T21:09:17.865Z,10.64
2019-02-21T21:12:01.805Z,10.63
2019-02-21T21:14:52.750Z,10.56
2019-02-21T21:17:36.173Z,10.55
2019-02-21T21:20:27.122Z,10.52
2019-02-21T21:22:58.934Z,10.55
2019-02-21T21:25:49.871Z,10.48
2019-02-21T21:29:00.154Z,10.46
2019-02-21T21:31:43.865Z,10.45
2019-02-21T21:34:34.812Z,10.42
2019-02-21T21:37:18.906Z,10.48
2019-02-21T21:40:13.535Z,10.41
2019-02-21T21:42:57.662Z,10.40
2019-02-21T21:45:48.612Z,10.40
2019-02-21T21:48:32.454Z,10.36
2019-02-21T21:51:23.420Z,10.34
2019-02-21T21:54:07.270Z,10.34
2019-02-21T21:56:58.186Z,10.34
2019-02-21T22:00:00.715Z,10.32
2019-02-21T22:02:51.657Z,10.30
2019-02-21T22:05:35.006Z,10.30
2019-02-21T22:08:25.939Z,10.30
2019-02-21T22:11:09.775Z,10.27
2019-02-21T22:14:00.710Z,10.26
2019-02-21T22:16:44.668Z,10.27
2019-02-21T22:19:35.574Z,10.28
2019-02-21T22:22:18.953Z,10.27
2019-02-21T22:25:10.701Z,10.27
2019-02-21T22:27:54.621Z,10.24
2019-02-21T22:30:45.584Z,10.23
2019-02-21T22:33:29.364Z,10.20
2019-02-21T22:36:20.309Z,10.17
2019-02-21T22:39:15.500Z,10.16
2019-02-21T22:41:57.074Z,10.20
2019-02-21T22:44:40.547Z,10.20
2019-02-21T22:47:31.455Z,10.20
2019-02-21T22:50:14.982Z,10.17
2019-02-21T22:53:05.974Z,10.14
2019-02-21T22:55:49.079Z,10.13
2019-02-21T22:58:45.035Z,10.13
2019-02-21T23:01:46.187Z,10.15
2019-02-21T23:04:55.127Z,10.14
2019-02-21T23:08:17.022Z,10.16
2019-02-21T23:11:00.737Z,10.17
2019-02-21T23:13:51.946Z,10.17
2019-02-21T23:16:35.722Z,10.17
2019-02-21T23:22:29.382Z,10.13
2019-02-21T23:25:20.317Z,10.15
2019-02-21T23:28:04.372Z,10.16
2019-02-21T23:30:55.321Z,10.15
2019-02-21T23:33:43.880Z,10.15
2019-02-21T23:36:34.825Z,10.16
2019-02-21T23:39:18.588Z,10.16
2019-02-21T23:42:09.548Z,10.14
2019-02-21T23:45:12.657Z,10.15
2019-02-21T23:48:03.595Z,10.12
2019-02-21T23:50:47.187Z,10.15
2019-02-21T23:53:38.147Z,10.14
2019-02-21T23:56:22.011Z,10.16
2019-02-21T23:59:12.918Z,10.20
